createdAt,value
2018-10-11T00:00:13.921Z,19.20
2018-10-11T00:02:45.243Z,19.00
2018-10-11T00:05:14.626Z,19.00
2018-10-11T00:07:43.995Z,19.00
2018-10-11T00:10:13.364Z,18.80
2018-10-11T00:12:42.713Z,18.80
2018-10-11T00:15:12.081Z,18.70
2018-10-11T00:17:41.491Z,18.60
2018-10-11T00:20:10.940Z,18.50
2018-10-11T00:22:42.288Z,18.50
2018-10-11T00:25:12.774Z,18.70
2018-10-11T00:27:42.128Z,18.80
2018-10-11T00:30:11.496Z,18.90
2018-10-11T00:32:41.290Z,19.00
2018-10-11T00:35:10.689Z,19.00
2018-10-11T00:37:40.023Z,18.90
2018-10-11T00:40:10.896Z,19.00
2018-10-11T00:42:42.001Z,19.00
2018-10-11T00:45:11.480Z,18.90
2018-10-11T00:47:40.910Z,18.90
2018-10-11T00:50:10.320Z,19.10
2018-10-11T00:52:39.682Z,19.20
2018-10-11T00:55:09.044Z,19.10
2018-10-11T00:57:39.427Z,19.10
2018-10-11T01:00:08.827Z,19.00
2018-10-11T01:02:38.171Z,18.90
2018-10-11T01:05:07.636Z,19.00
2018-10-11T01:07:37.593Z,19.00
2018-10-11T01:10:08.041Z,19.10
2018-10-11T01:12:37.424Z,19.00
2018-10-11T01:15:08.066Z,19.10
2018-10-11T01:17:37.503Z,19.30
2018-10-11T01:20:09.322Z,19.30
2018-10-11T01:22:38.811Z,19.10
2018-10-11T01:25:08.183Z,19.00
2018-10-11T01:27:37.558Z,18.80
2018-10-11T01:30:08.139Z,18.90
2018-10-11T01:32:37.370Z,19.10
2018-10-11T01:35:08.779Z,19.10
2018-10-11T01:37:38.273Z,19.00
2018-10-11T01:40:07.807Z,18.90
2018-10-11T01:42:41.128Z,18.90
2018-10-11T01:45:11.012Z,18.80
2018-10-11T01:47:40.400Z,18.90
2018-10-11T01:50:10.405Z,18.80
2018-10-11T01:52:39.735Z,19.00
2018-10-11T01:55:10.196Z,19.00
2018-10-11T01:57:39.549Z,19.00
2018-10-11T02:00:08.873Z,18.80
2018-10-11T02:02:38.220Z,18.90
2018-10-11T02:05:07.832Z,18.90
2018-10-11T02:07:37.280Z,18.90
2018-10-11T02:10:06.664Z,19.00
2018-10-11T02:12:36.001Z,19.00
2018-10-11T02:15:05.456Z,18.90
2018-10-11T02:17:35.844Z,19.00
2018-10-11T02:20:06.296Z,19.10
2018-10-11T02:22:35.677Z,18.90
2018-10-11T02:25:05.045Z,18.80
2018-10-11T02:27:34.372Z,18.80
2018-10-11T02:30:04.898Z,18.70
2018-10-11T02:32:34.217Z,18.70
2018-10-11T02:35:03.550Z,18.70
2018-10-11T02:37:32.961Z,18.70
2018-10-11T02:40:02.285Z,18.70
2018-10-11T02:42:31.715Z,18.60
2018-10-11T02:45:01.197Z,18.70
2018-10-11T02:47:30.703Z,18.60
2018-10-11T02:50:00.055Z,18.60
2018-10-11T02:52:29.392Z,18.80
2018-10-11T02:54:58.818Z,18.70
2018-10-11T02:57:39.420Z,18.60
2018-10-11T03:00:08.837Z,18.60
2018-10-11T03:02:39.274Z,18.50
2018-10-11T03:05:12.918Z,18.40
2018-10-11T03:07:42.708Z,18.30
2018-10-11T03:10:12.153Z,18.20
2018-10-11T03:12:41.580Z,18.10
2018-10-11T03:15:10.947Z,18.10
2018-10-11T03:17:40.299Z,18.10
2018-10-11T03:20:09.711Z,17.70
2018-10-11T03:22:39.070Z,17.50
2018-10-11T03:25:08.578Z,17.10
2018-10-11T03:27:38.904Z,16.60
2018-10-11T03:30:08.266Z,16.10
2018-10-11T03:32:37.569Z,15.70
2018-10-11T03:35:07.955Z,15.30
2018-10-11T03:37:37.388Z,15.10
2018-10-11T03:40:07.083Z,15.00
2018-10-11T03:42:37.391Z,14.90
2018-10-11T03:45:06.960Z,14.80
2018-10-11T03:47:36.324Z,14.70
2018-10-11T03:50:05.687Z,14.70
2018-10-11T03:52:35.017Z,14.60
2018-10-11T03:55:04.543Z,14.50
2018-10-11T03:57:33.879Z,14.40
2018-10-11T04:00:03.278Z,14.30
2018-10-11T04:02:32.656Z,14.30
2018-10-11T04:05:02.142Z,14.30
2018-10-11T04:07:31.542Z,14.30
2018-10-11T04:10:00.850Z,14.20
2018-10-11T04:12:30.309Z,14.20
2018-10-11T04:14:59.759Z,14.20
2018-10-11T04:17:29.281Z,14.20
2018-10-11T04:19:58.735Z,14.20
2018-10-11T04:22:28.073Z,14.20
2018-10-11T04:24:58.055Z,14.10
2018-10-11T04:27:28.513Z,14.10
2018-10-11T04:29:57.966Z,14.00
2018-10-11T04:32:27.392Z,13.90
2018-10-11T04:34:56.762Z,13.80
2018-10-11T04:37:26.101Z,13.70
2018-10-11T04:39:55.430Z,13.80
2018-10-11T04:42:24.785Z,13.80
2018-10-11T04:44:54.123Z,13.80
2018-10-11T04:47:23.453Z,13.80
2018-10-11T04:49:52.856Z,13.80
2018-10-11T04:52:22.196Z,13.70
2018-10-11T04:54:53.662Z,13.70
2018-10-11T04:57:23.129Z,13.70
2018-10-11T04:59:52.609Z,13.70
2018-10-11T05:02:21.885Z,13.60
2018-10-11T05:04:51.287Z,13.60
2018-10-11T05:07:21.663Z,13.50
2018-10-11T05:09:51.061Z,13.50
2018-10-11T05:12:20.468Z,13.50
2018-10-11T05:14:50.277Z,13.40
2018-10-11T05:17:19.828Z,13.50
2018-10-11T05:19:49.207Z,13.50
2018-10-11T05:22:18.590Z,13.60
2018-10-11T05:24:48.950Z,13.60
2018-10-11T05:27:18.382Z,13.60
2018-10-11T05:29:47.757Z,13.60
2018-10-11T05:32:17.222Z,13.60
2018-10-11T05:34:46.544Z,13.70
2018-10-11T05:37:16.594Z,13.60
2018-10-11T05:39:46.083Z,13.60
2018-10-11T05:42:15.816Z,13.60
2018-10-11T05:44:45.307Z,13.60
2018-10-11T05:47:15.739Z,13.60
2018-10-11T05:49:49.100Z,13.60
2018-10-11T05:52:19.489Z,13.60
2018-10-11T05:54:48.962Z,13.60
2018-10-11T05:57:18.457Z,13.70
2018-10-11T05:59:47.847Z,13.70
2018-10-11T06:02:17.404Z,13.80
2018-10-11T06:04:46.865Z,13.90
2018-10-11T06:07:16.431Z,13.80
2018-10-11T06:09:45.847Z,13.80
2018-10-11T06:12:15.296Z,13.80
2018-10-11T06:14:45.048Z,13.80
2018-10-11T06:19:44.625Z,13.90
2018-10-11T06:22:15.035Z,13.90
2018-10-11T06:24:44.477Z,13.90
2018-10-11T06:27:13.857Z,13.90
2018-10-11T06:29:43.303Z,13.80
2018-10-11T06:32:12.740Z,13.90
2018-10-11T06:34:42.144Z,13.90
2018-10-11T06:37:11.475Z,13.90
2018-10-11T06:39:41.262Z,14.00
2018-10-11T06:42:11.914Z,14.10
2018-10-11T06:44:41.744Z,14.10
2018-10-11T06:47:11.856Z,14.00
2018-10-11T06:49:41.791Z,14.00
2018-10-11T06:52:11.676Z,14.10
2018-10-11T06:54:41.590Z,14.10
2018-10-11T06:57:11.315Z,14.20
2018-10-11T06:59:41.103Z,14.30
2018-10-11T07:02:10.897Z,14.40
2018-10-11T07:04:40.656Z,14.40
2018-10-11T07:07:10.723Z,14.50
2018-10-11T07:09:40.807Z,14.60
2018-10-11T07:12:10.184Z,14.70
2018-10-11T07:14:39.881Z,14.70
2018-10-11T07:17:09.611Z,14.80
2018-10-11T07:19:39.739Z,14.90
2018-10-11T07:22:09.754Z,15.00
2018-10-11T07:24:39.557Z,15.20
2018-10-11T07:27:09.270Z,15.30
2018-10-11T07:29:39.557Z,15.40
2018-10-11T07:32:09.752Z,15.50
2018-10-11T07:34:39.693Z,15.50
2018-10-11T07:37:09.494Z,15.60
2018-10-11T07:39:39.276Z,15.60
2018-10-11T07:42:09.565Z,15.60
2018-10-11T07:44:39.365Z,15.70
2018-10-11T07:47:09.222Z,15.80
2018-10-11T07:49:39.379Z,15.80
2018-10-11T07:52:09.309Z,15.90
2018-10-11T07:54:39.109Z,15.90
2018-10-11T07:57:08.878Z,15.90
2018-10-11T07:59:38.681Z,15.90
2018-10-11T08:02:08.494Z,15.90
2018-10-11T08:04:38.381Z,16.00
2018-10-11T08:07:08.625Z,16.10
2018-10-11T08:09:38.583Z,16.30
2018-10-11T08:12:09.438Z,16.40
2018-10-11T08:14:39.211Z,16.50
2018-10-11T08:17:08.924Z,16.40
2018-10-11T08:19:38.566Z,16.50
2018-10-11T08:22:08.398Z,16.50
2018-10-11T08:24:37.890Z,16.70
2018-10-11T08:27:09.158Z,16.80
2018-10-11T08:29:38.714Z,16.90
2018-10-11T08:32:08.209Z,16.90
2018-10-11T08:34:37.586Z,17.00
2018-10-11T08:37:10.007Z,17.10
2018-10-11T08:39:39.427Z,17.20
2018-10-11T08:42:08.921Z,17.30
2018-10-11T08:44:38.328Z,17.30
2018-10-11T08:47:08.684Z,17.50
2018-10-11T08:49:40.332Z,17.40
2018-10-11T08:52:09.735Z,17.50
2018-10-11T08:54:50.787Z,17.50
2018-10-11T08:57:21.153Z,17.70
2018-10-11T08:59:50.566Z,17.70
2018-10-11T09:02:20.003Z,17.60
2018-10-11T09:04:50.421Z,17.70
2018-10-11T09:07:19.797Z,17.90
2018-10-11T09:09:53.563Z,17.90
2018-10-11T09:12:18.587Z,18.00
2018-10-11T09:14:48.012Z,18.00
2018-10-11T09:17:17.983Z,18.20
2018-10-11T09:19:48.033Z,18.20
2018-10-11T09:22:18.371Z,18.40
2018-10-11T09:24:47.725Z,18.40
2018-10-11T09:27:17.078Z,18.50
2018-10-11T09:29:46.458Z,18.60
2018-10-11T09:32:15.830Z,18.60
2018-10-11T09:34:45.267Z,18.70
2018-10-11T09:37:14.654Z,18.70
2018-10-11T09:39:44.083Z,18.90
2018-10-11T09:43:35.019Z,18.90
2018-10-11T09:46:04.498Z,18.90
2018-10-11T09:48:33.808Z,18.80
2018-10-11T09:51:03.104Z,18.80
2018-10-11T09:53:32.447Z,18.70
2018-10-11T09:56:01.893Z,18.40
2018-10-11T09:58:31.261Z,18.40
2018-10-11T10:01:06.019Z,18.50
2018-10-11T10:03:39.293Z,18.80
2018-10-11T10:06:08.717Z,18.90
2018-10-11T10:08:38.943Z,19.10
2018-10-11T10:11:08.539Z,19.30
2018-10-11T10:14:13.540Z,19.60
2018-10-11T10:16:42.897Z,19.60
2018-10-11T10:19:12.279Z,19.60
2018-10-11T10:21:41.705Z,19.70
2018-10-11T10:24:11.029Z,19.70
2018-10-11T10:26:40.627Z,19.60
2018-10-11T10:29:10.000Z,19.60
2018-10-11T10:31:39.420Z,19.40
2018-10-11T10:34:08.985Z,19.40
2018-10-11T10:36:38.357Z,19.10
2018-10-11T10:39:08.914Z,19.10
2018-10-11T10:41:38.269Z,19.10
2018-10-11T10:44:07.710Z,19.10
2018-10-11T10:46:37.767Z,19.20
2018-10-11T10:49:10.206Z,19.30
2018-10-11T10:51:39.604Z,19.20
2018-10-11T10:54:15.413Z,19.10
2018-10-11T10:56:44.721Z,19.20
2018-10-11T10:59:14.064Z,19.20
2018-10-11T11:01:43.463Z,19.10
2018-10-11T11:04:12.911Z,19.30
2018-10-11T11:06:42.403Z,19.40
2018-10-11T11:09:12.999Z,19.50
2018-10-11T11:11:42.700Z,19.50
2018-10-11T11:14:13.280Z,19.60
2018-10-11T11:16:43.089Z,19.70
2018-10-11T11:19:13.948Z,19.70
2018-10-11T11:21:43.345Z,19.70
2018-10-11T11:24:13.707Z,19.80
2018-10-11T11:26:43.105Z,19.90
2018-10-11T11:29:12.457Z,20.20
2018-10-11T11:31:41.804Z,20.10
2018-10-11T11:34:11.103Z,20.00
2018-10-11T11:36:40.472Z,20.00
2018-10-11T11:39:10.320Z,20.10
2018-10-11T11:41:39.684Z,20.40
2018-10-11T11:44:09.158Z,20.40
2018-10-11T11:46:38.518Z,20.30
2018-10-11T11:49:07.910Z,20.20
2018-10-11T11:51:37.262Z,20.20
2018-10-11T11:54:10.915Z,20.30
2018-10-11T11:56:40.271Z,20.40
2018-10-11T11:59:09.734Z,20.50
2018-10-11T12:01:39.222Z,20.50
2018-10-11T12:04:10.634Z,20.10
2018-10-11T12:06:40.034Z,20.20
2018-10-11T12:09:14.564Z,20.40
2018-10-11T12:11:43.954Z,20.30
2018-10-11T12:14:13.315Z,20.10
2018-10-11T12:16:42.810Z,20.20
2018-10-11T12:19:13.781Z,19.90
2018-10-11T12:21:44.175Z,19.70
2018-10-11T12:24:13.549Z,19.80
2018-10-11T12:26:42.907Z,19.40
2018-10-11T12:29:12.330Z,19.40
2018-10-11T12:31:43.684Z,19.60
2018-10-11T12:34:13.218Z,19.60
2018-10-11T12:36:42.582Z,19.70
2018-10-11T12:39:11.929Z,19.60
2018-10-11T12:41:42.323Z,19.60
2018-10-11T12:44:11.662Z,19.70
2018-10-11T12:46:44.914Z,19.80
2018-10-11T12:49:14.336Z,19.80
2018-10-11T12:51:43.732Z,19.90
2018-10-11T12:54:16.951Z,19.80
2018-10-11T12:56:46.507Z,19.80
2018-10-11T12:59:15.673Z,19.60
2018-10-11T13:01:45.150Z,19.50
2018-10-11T13:04:14.472Z,19.50
2018-10-11T13:06:43.830Z,19.50
2018-10-11T13:09:13.208Z,19.50
2018-10-11T13:11:42.629Z,19.40
2018-10-11T13:14:12.996Z,19.30
2018-10-11T13:16:42.375Z,19.40
2018-10-11T13:19:12.741Z,19.40
2018-10-11T13:21:42.155Z,19.50
2018-10-11T13:24:11.714Z,19.50
2018-10-11T13:26:41.121Z,19.50
2018-10-11T13:29:10.531Z,19.60
2018-10-11T13:31:39.997Z,19.50
2018-10-11T13:34:10.578Z,19.60
2018-10-11T13:36:39.984Z,19.60
2018-10-11T13:39:10.521Z,19.60
2018-10-11T13:41:40.424Z,19.60
2018-10-11T13:44:09.813Z,19.60
2018-10-11T13:46:39.201Z,19.60
2018-10-11T13:49:08.641Z,19.60
2018-10-11T13:51:38.057Z,19.70
2018-10-11T13:54:07.478Z,19.60
2018-10-11T13:56:36.877Z,19.60
2018-10-11T13:59:08.645Z,19.40
2018-10-11T14:01:35.685Z,19.40
2018-10-11T14:04:07.747Z,19.40
2018-10-11T14:06:38.197Z,19.40
2018-10-11T14:09:10.136Z,19.50
2018-10-11T14:11:39.903Z,19.50
2018-10-11T14:14:11.472Z,19.50
2018-10-11T14:16:44.738Z,19.40
2018-10-11T14:19:14.100Z,19.40
2018-10-11T14:21:43.501Z,19.40
2018-10-11T14:24:13.921Z,19.50
2018-10-11T14:26:43.413Z,19.50
2018-10-11T14:29:12.844Z,19.40
2018-10-11T14:31:42.208Z,19.30
2018-10-11T14:34:11.754Z,19.30
2018-10-11T14:36:41.262Z,19.20
2018-10-11T14:39:10.600Z,19.10
2018-10-11T14:41:40.014Z,19.10
2018-10-11T14:44:09.404Z,19.00
2018-10-11T14:46:38.763Z,19.00
2018-10-11T14:49:08.129Z,19.00
2018-10-11T14:51:40.812Z,18.80
2018-10-11T14:54:07.102Z,18.80
2018-10-11T14:56:36.562Z,18.80
2018-10-11T14:59:05.986Z,18.70
2018-10-11T15:01:35.440Z,18.50
2018-10-11T15:04:04.836Z,18.50
2018-10-11T15:06:34.248Z,18.50
2018-10-11T15:09:08.733Z,18.40
2018-10-11T15:11:38.325Z,18.30
2018-10-11T15:14:10.933Z,18.20
2018-10-11T15:16:40.334Z,18.20
2018-10-11T15:19:09.742Z,18.20
2018-10-11T15:21:39.088Z,18.20
2018-10-11T15:24:08.561Z,18.20
2018-10-11T15:26:38.043Z,18.10
2018-10-11T15:29:07.406Z,18.00
2018-10-11T15:31:36.789Z,18.00
2018-10-11T15:34:06.422Z,17.90
2018-10-11T15:36:35.814Z,17.90
2018-10-11T15:39:08.404Z,17.90
2018-10-11T15:41:38.372Z,17.80
2018-10-11T15:44:13.011Z,17.60
2018-10-11T15:46:42.944Z,17.50
2018-10-11T15:49:13.004Z,17.40
2018-10-11T15:51:43.485Z,17.50
2018-10-11T15:54:13.837Z,17.50
2018-10-11T15:56:43.226Z,17.50
2018-10-11T15:59:12.611Z,17.50
2018-10-11T16:01:41.964Z,17.60
2018-10-11T16:04:11.430Z,17.70
2018-10-11T16:06:40.929Z,17.80
2018-10-11T16:09:11.000Z,17.80
2018-10-11T16:11:40.317Z,17.80
2018-10-11T16:14:09.761Z,17.70
2018-10-11T16:16:39.169Z,17.60
2018-10-11T16:19:08.702Z,17.60
2018-10-11T16:21:38.083Z,17.70
2018-10-11T16:24:07.461Z,17.70
2018-10-11T16:26:36.928Z,17.70
2018-10-11T16:29:06.346Z,17.70
2018-10-11T16:31:35.734Z,17.60
2018-10-11T16:34:05.797Z,17.50
2018-10-11T16:36:36.163Z,17.60
2018-10-11T16:39:07.820Z,17.60
2018-10-11T16:41:37.172Z,17.60
2018-10-11T16:44:08.556Z,17.50
2018-10-11T16:46:37.920Z,17.30
2018-10-11T16:49:07.329Z,17.20
2018-10-11T16:51:38.230Z,17.10
2018-10-11T16:54:08.223Z,16.90
2018-10-11T16:56:37.700Z,16.80
2018-10-11T16:59:07.274Z,16.80
2018-10-11T17:01:36.600Z,16.70
2018-10-11T17:04:06.116Z,16.70
2018-10-11T17:06:35.491Z,16.60
2018-10-11T17:09:07.793Z,16.60
2018-10-11T17:11:37.249Z,16.50
2018-10-11T17:14:06.883Z,16.40
2018-10-11T17:16:36.343Z,16.30
2018-10-11T17:19:05.857Z,16.20
2018-10-11T17:21:35.261Z,16.10
2018-10-11T17:24:04.633Z,16.00
2018-10-11T17:26:33.992Z,16.00
2018-10-11T17:29:03.323Z,16.00
2018-10-11T17:31:32.656Z,15.90
2018-10-11T17:34:02.014Z,15.90
2018-10-11T17:36:31.458Z,15.70
2018-10-11T17:39:00.800Z,15.70
2018-10-11T17:41:30.104Z,15.70
2018-10-11T17:43:59.579Z,15.60
2018-10-11T17:46:28.892Z,15.60
2018-10-11T17:48:58.241Z,15.50
2018-10-11T17:51:27.633Z,15.50
2018-10-11T17:53:56.989Z,15.50
2018-10-11T17:56:26.345Z,15.50
2018-10-11T17:58:55.724Z,15.40
2018-10-11T18:01:25.080Z,15.50
2018-10-11T18:03:54.419Z,15.40
2018-10-11T18:06:23.790Z,15.40
2018-10-11T18:08:54.105Z,15.30
2018-10-11T18:11:23.435Z,15.30
2018-10-11T18:13:52.927Z,15.20
2018-10-11T18:16:22.306Z,15.20
2018-10-11T18:18:51.627Z,15.10
2018-10-11T18:21:20.986Z,15.10
2018-10-11T18:23:50.356Z,15.10
2018-10-11T18:26:19.711Z,15.10
2018-10-11T18:28:49.167Z,15.00
2018-10-11T18:31:18.547Z,14.90
2018-10-11T18:33:47.927Z,14.90
2018-10-11T18:36:17.402Z,14.80
2018-10-11T18:38:46.764Z,14.80
2018-10-11T18:41:16.133Z,14.80
2018-10-11T18:43:45.598Z,14.70
2018-10-11T18:46:14.950Z,14.70
2018-10-11T18:48:44.350Z,14.60
2018-10-11T18:51:13.722Z,14.60
2018-10-11T18:53:43.080Z,14.50
2018-10-11T18:56:13.414Z,14.50
2018-10-11T18:58:42.778Z,14.40
2018-10-11T19:01:12.234Z,14.30
2018-10-11T19:03:41.581Z,14.30
2018-10-11T19:06:11.031Z,14.30
2018-10-11T19:08:41.012Z,14.30
2018-10-11T19:11:12.430Z,14.10
2018-10-11T19:13:41.910Z,14.00
2018-10-11T19:16:11.562Z,14.10
2018-10-11T19:18:40.926Z,14.10
2018-10-11T19:21:10.302Z,14.10
2018-10-11T19:23:39.675Z,14.00
2018-10-11T19:26:09.165Z,14.00
2018-10-11T19:28:38.553Z,13.90
2018-10-11T19:31:09.048Z,13.80
2018-10-11T19:33:38.463Z,13.90
2018-10-11T19:36:08.221Z,13.90
2018-10-11T19:38:37.753Z,13.80
2018-10-11T19:41:07.154Z,13.80
2018-10-11T19:43:36.546Z,13.90
2018-10-11T19:46:05.970Z,13.90
2018-10-11T19:48:35.406Z,13.80
2018-10-11T19:51:04.769Z,13.90
2018-10-11T19:53:35.249Z,13.80
2018-10-11T19:56:04.635Z,13.90
2018-10-11T19:58:34.151Z,13.90
2018-10-11T20:01:03.548Z,14.00
2018-10-11T20:03:33.897Z,13.90
2018-10-11T20:06:03.372Z,14.00
2018-10-11T20:08:32.834Z,13.90
2018-10-11T20:11:02.215Z,14.00
2018-10-11T20:13:32.633Z,13.90
2018-10-11T20:16:01.972Z,13.90
2018-10-11T20:18:31.301Z,13.80
2018-10-11T20:21:00.707Z,13.80
2018-10-11T20:23:30.115Z,13.70
2018-10-11T20:25:59.481Z,13.70
2018-10-11T20:28:28.765Z,13.70
2018-10-11T20:30:58.424Z,13.70
2018-10-11T20:33:28.743Z,13.60
2018-10-11T20:35:58.140Z,13.70
2018-10-11T20:38:27.864Z,13.70
2018-10-11T20:40:57.808Z,13.70
2018-10-11T20:43:27.220Z,13.80
2018-10-11T20:45:56.558Z,13.70
2018-10-11T20:48:25.964Z,13.60
2018-10-11T20:50:55.301Z,13.70
2018-10-11T20:53:24.632Z,13.70
2018-10-11T20:55:54.089Z,13.60
2018-10-11T20:58:23.575Z,13.60
2018-10-11T21:00:52.908Z,13.50
2018-10-11T21:03:22.273Z,13.40
2018-10-11T21:05:51.720Z,13.20
2018-10-11T21:08:21.018Z,13.20
2018-10-11T21:10:50.398Z,13.30
2018-10-11T21:13:19.724Z,13.20
2018-10-11T21:15:49.137Z,13.10
2018-10-11T21:18:18.683Z,13.10
2018-10-11T21:20:48.130Z,13.10
2018-10-11T21:23:17.556Z,13.10
2018-10-11T21:25:46.892Z,13.20
2018-10-11T21:28:16.317Z,13.10
2018-10-11T21:30:45.705Z,13.20
2018-10-11T21:33:15.088Z,13.10
2018-10-11T21:35:44.674Z,13.20
2018-10-11T21:38:14.408Z,13.20
2018-10-11T21:40:43.794Z,13.20
2018-10-11T21:43:13.128Z,13.20
2018-10-11T21:45:42.488Z,13.30
2018-10-11T21:48:11.854Z,13.20
2018-10-11T21:50:41.203Z,13.20
2018-10-11T21:53:11.305Z,13.10
2018-10-11T21:55:40.861Z,13.10
2018-10-11T21:58:10.253Z,13.10
2018-10-11T22:00:44.974Z,13.00
2018-10-11T22:03:14.526Z,12.90
2018-10-11T22:05:43.971Z,13.00
2018-10-11T22:08:13.361Z,12.90
2018-10-11T22:10:42.737Z,12.80
2018-10-11T22:13:12.108Z,12.80
2018-10-11T22:15:41.476Z,12.70
2018-10-11T22:18:10.873Z,12.60
2018-10-11T22:20:40.269Z,12.60
2018-10-11T22:23:09.636Z,12.60
2018-10-11T22:25:38.994Z,12.70
2018-10-11T22:28:08.531Z,12.70
2018-10-11T22:30:37.953Z,12.70
2018-10-11T22:33:07.441Z,12.70
2018-10-11T22:35:36.795Z,12.80
2018-10-11T22:38:06.224Z,12.80
2018-10-11T22:40:36.290Z,12.80
2018-10-11T22:43:05.734Z,12.70
2018-10-11T22:45:35.170Z,12.70
2018-10-11T22:48:04.537Z,12.70
2018-10-11T22:50:33.899Z,12.70
2018-10-11T22:53:03.287Z,12.70
2018-10-11T22:55:33.099Z,12.70
2018-10-11T22:58:02.709Z,12.70
2018-10-11T23:00:32.283Z,12.70
2018-10-11T23:03:01.656Z,12.80
2018-10-11T23:05:30.976Z,12.80
2018-10-11T23:08:00.408Z,12.90
2018-10-11T23:10:29.751Z,12.90
2018-10-11T23:12:59.132Z,13.00
2018-10-11T23:15:28.479Z,13.00
2018-10-11T23:17:57.843Z,13.00
2018-10-11T23:20:27.257Z,13.10
2018-10-11T23:22:56.792Z,13.10
2018-10-11T23:25:26.128Z,13.20
2018-10-11T23:27:55.618Z,13.30
2018-10-11T23:30:24.979Z,13.30
2018-10-11T23:32:54.299Z,13.40
2018-10-11T23:35:23.800Z,13.50
2018-10-11T23:37:53.145Z,13.50
2018-10-11T23:40:22.461Z,13.60
2018-10-11T23:42:51.767Z,13.60
2018-10-11T23:45:21.197Z,13.60
2018-10-11T23:47:50.573Z,13.60
2018-10-11T23:50:19.918Z,13.50
2018-10-11T23:52:49.320Z,13.40
2018-10-11T23:55:18.692Z,13.40
2018-10-11T23:57:48.059Z,13.30
